Time;durP1;ratioP1;P1;durP2;ratioP2;P2;SDS_P1;SDS_P2;PMS_P1;PMS_P2;Temp;Humidity;BMP_temperature;BMP_pressure;BME280_temperature;BME280_humidity;BME280_pressure;Samples;Min_cycle;Max_cycle;Signal;HPM_P1;HPM_P2
2021/11/05 00:00:30;;;;;;;1.17;0.20;;;;;;;24.35;19.22;97725.72;5022903;28;20026;-87
2021/11/05 00:02:57;;;;;;;0.70;0.30;;;;;;;24.40;19.51;97732.81;5034926;28;20064;-87
2021/11/05 00:05:28;;;;;;;0.50;0.22;;;;;;;24.56;19.20;97741.94;5028351;28;20037;-87
2021/11/05 00:07:55;;;;;;;0.30;0.30;;;;;;;24.65;18.94;97749.69;5024600;28;20034;-84
2021/11/05 00:10:22;;;;;;;0.73;0.22;;;;;;;24.20;19.33;97765.84;5032952;28;20029;-84
2021/11/05 00:12:48;;;;;;;0.60;0.15;;;;;;;23.89;19.77;97771.84;5038829;28;20399;-84
2021/11/05 00:15:15;;;;;;;0.35;0.30;;;;;;;23.76;19.80;97779.38;5022012;28;20547;-84
2021/11/05 00:17:41;;;;;;;0.20;0.20;;;;;;;23.54;20.30;97783.16;5035449;28;20077;-85
2021/11/05 00:20:08;;;;;;;0.30;0.30;;;;;;;22.95;20.83;97786.09;5034404;28;20051;-85
2021/11/05 00:22:35;;;;;;;0.40;0.25;;;;;;;23.05;20.76;97805.47;5065147;28;20537;-85
2021/11/05 00:25:03;;;;;;;0.20;0.20;;;;;;;23.30;20.42;97816.91;5056418;28;20483;-85
2021/11/05 00:27:29;;;;;;;0.22;0.20;;;;;;;23.38;20.14;97819.56;5067777;28;20074;-84
2021/11/05 00:29:55;;;;;;;0.20;0.10;;;;;;;23.51;20.09;97826.84;5082023;28;20489;-84
2021/11/05 00:32:21;;;;;;;0.30;0.22;;;;;;;23.94;19.53;97832.97;5082632;28;20449;-85
2021/11/05 00:34:47;;;;;;;0.10;0.10;;;;;;;23.52;20.31;97833.25;5069240;28;20041;-85
2021/11/05 00:37:14;;;;;;;0.25;0.17;;;;;;;23.84;19.71;97842.47;5060288;28;20036;-85
2021/11/05 00:39:40;;;;;;;0.30;0.30;;;;;;;23.97;19.53;97836.91;5080409;28;20470;-85
2021/11/05 00:42:06;;;;;;;0.38;0.20;;;;;;;24.85;18.78;97828.19;5074377;28;20053;-85
2021/11/05 00:44:32;;;;;;;0.20;0.10;;;;;;;25.10;18.34;97834.66;5061310;28;20056;-85
2021/11/05 00:46:58;;;;;;;1.00;0.10;;;;;;;25.46;17.92;97834.38;5077359;28;20394;-85
2021/11/05 00:49:24;;;;;;;0.17;0.17;;;;;;;25.28;18.21;97834.09;5068756;28;20410;-85
2021/11/05 00:51:50;;;;;;;0.47;0.35;;;;;;;23.80;19.71;97836.16;5061573;28;20065;-85
2021/11/05 00:54:17;;;;;;;0.17;0.10;;;;;;;24.45;19.34;97836.88;5066801;28;20037;-85
2021/11/05 00:56:43;;;;;;;0.28;0.15;;;;;;;24.80;18.63;97837.94;5068283;28;20032;-85
2021/11/05 00:59:09;;;;;;;0.65;0.20;;;;;;;24.85;18.85;97847.84;5054306;28;20025;-85
2021/11/05 01:01:35;;;;;;;1.20;0.40;;;;;;;25.06;18.48;97848.03;5072806;28;20448;-85
2021/11/05 01:04:01;;;;;;;0.13;0.13;;;;;;;24.98;18.49;97851.47;5041319;28;20028;-85
2021/11/05 01:06:27;;;;;;;0.13;0.13;;;;;;;24.65;18.84;97857.19;5067499;28;20036;-85
2021/11/05 01:08:54;;;;;;;0.35;0.20;;;;;;;24.07;19.70;97868.75;5065118;28;20448;-85
2021/11/05 01:11:20;;;;;;;0.30;0.20;;;;;;;23.74;20.12;97870.75;5072858;28;20033;-84
2021/11/05 01:13:46;;;;;;;0.17;0.17;;;;;;;24.27;19.38;97883.50;5066268;28;20098;-86
2021/11/05 01:16:12;;;;;;;0.40;0.30;;;;;;;24.25;19.39;97889.53;5069996;28;20060;-85
2021/11/05 01:18:38;;;;;;;0.10;0.10;;;;;;;23.75;19.86;97894.75;5072487;28;20052;-85
2021/11/05 01:21:05;;;;;;;0.20;0.20;;;;;;;23.42;20.64;97890.31;5048324;28;20040;-85
2021/11/05 01:23:31;;;;;;;0.20;0.20;;;;;;;23.16;20.51;97887.22;5059577;28;20398;-85
2021/11/05 01:25:57;;;;;;;0.17;0.17;;;;;;;23.62;20.09;97891.06;5066226;28;20037;-85
2021/11/05 01:28:23;;;;;;;0.45;0.30;;;;;;;24.26;19.67;97901.53;5061129;28;22232;-85
2021/11/05 01:30:49;;;;;;;0.40;0.30;;;;;;;24.78;18.93;97899.38;5064940;28;20508;-84
2021/11/05 01:33:16;;;;;;;0.20;0.20;;;;;;;25.15;18.44;97890.28;5072984;28;20041;-84
2021/11/05 01:35:43;;;;;;;0.30;0.30;;;;;;;25.28;18.29;97893.91;5064972;28;20072;-85
2021/11/05 01:38:10;;;;;;;0.25;0.25;;;;;;;24.91;18.80;97883.34;5059663;28;20481;-84
2021/11/05 01:40:40;;;;;;;0.20;0.20;;;;;;;24.90;18.83;97895.03;5067496;28;20036;-84
2021/11/05 01:43:07;;;;;;;0.20;0.17;;;;;;;25.01;18.56;97889.91;5069458;28;20041;-84
2021/11/05 01:45:33;;;;;;;0.20;0.20;;;;;;;24.74;18.94;97905.06;5059493;28;20036;-85
2021/11/05 01:48:00;;;;;;;0.20;0.20;;;;;;;24.26;19.47;97907.16;5063421;28;20036;-85
2021/11/05 01:50:27;;;;;;;0.20;0.20;;;;;;;24.15;19.62;97901.81;5073497;28;20079;-85
2021/11/05 01:52:54;;;;;;;0.10;0.10;;;;;;;23.93;19.93;97901.53;5072171;28;20032;-85
2021/11/05 01:55:21;;;;;;;0.20;0.20;;;;;;;24.14;19.71;97897.44;5071794;28;20036;-84
2021/11/05 01:57:48;;;;;;;0.45;0.20;;;;;;;24.12;19.79;97890.69;5067758;28;20036;-85
2021/11/05 02:00:17;;;;;;;0.20;0.20;;;;;;;23.33;20.55;97888.88;5068206;28;20064;-84
2021/11/05 02:02:45;;;;;;;0.30;0.30;;;;;;;23.58;20.38;97893.94;5064662;28;20048;-85
2021/11/05 02:05:13;;;;;;;0.30;0.30;;;;;;;23.34;20.86;97892.44;5064111;28;20040;-84
2021/11/05 02:07:44;;;;;;;0.70;0.60;;;;;;;23.67;20.39;97908.13;5053161;28;20569;-84
2021/11/05 02:10:10;;;;;;;;;;;;;;;23.55;20.39;97906.00;5073534;28;20028;-84
2021/11/05 02:12:36;;;;;;;0.40;0.30;;;;;;;23.73;20.26;97906.41;5071859;28;20297;-84
2021/11/05 02:15:05;;;;;;;0.30;0.30;;;;;;;23.93;20.05;97906.34;5069987;28;20032;-86
2021/11/05 02:17:31;;;;;;;0.20;0.20;;;;;;;23.23;20.72;97897.50;5055258;28;20043;-85
2021/11/05 02:19:58;;;;;;;0.20;0.20;;;;;;;23.55;20.52;97908.81;5070658;28;20064;-85
2021/11/05 02:22:25;;;;;;;0.30;0.30;;;;;;;22.96;21.17;97897.66;5053994;28;20040;-85
2021/11/05 02:24:51;;;;;;;0.30;0.30;;;;;;;23.61;20.53;97893.06;5053480;28;20087;-84
2021/11/05 02:27:17;;;;;;;0.28;0.28;;;;;;;23.38;20.50;97893.22;5065997;28;20025;-85
2021/11/05 02:29:43;;;;;;;0.30;0.30;;;;;;;23.22;20.71;97882.69;5070163;28;20032;-85
2021/11/05 02:32:09;;;;;;;0.30;0.30;;;;;;;23.11;20.96;97887.75;5072187;28;20111;-84
2021/11/05 02:34:36;;;;;;;0.22;0.22;;;;;;;23.25;20.92;97884.63;5069692;28;20506;-84
2021/11/05 02:37:03;;;;;;;0.22;0.20;;;;;;;23.58;20.34;97882.72;5056886;28;20033;-84
2021/11/05 02:39:32;;;;;;;0.28;0.28;;;;;;;23.24;20.55;97883.03;5068260;28;20032;-84
2021/11/05 02:41:59;;;;;;;0.30;0.30;;;;;;;23.30;20.64;97886.94;5066958;28;20490;-84
2021/11/05 02:44:26;;;;;;;0.40;0.30;;;;;;;22.85;21.06;97890.72;5067610;28;20485;-84
2021/11/05 02:46:52;;;;;;;0.20;0.20;;;;;;;23.54;20.63;97889.63;5074088;28;20029;-85
2021/11/05 02:49:18;;;;;;;0.20;0.20;;;;;;;23.12;20.88;97882.94;5072987;28;20079;-83
2021/11/05 02:51:47;;;;;;;0.28;0.28;;;;;;;23.17;20.57;97890.84;5063675;28;20032;-83
2021/11/05 02:54:15;;;;;;;1.25;0.13;;;;;;;23.53;20.43;97902.84;5069441;28;20067;-84
2021/11/05 02:56:41;;;;;;;0.20;0.20;;;;;;;24.24;19.54;97904.00;5062479;28;20028;-84
2021/11/05 02:59:08;;;;;;;0.20;0.20;;;;;;;24.27;19.60;97915.13;5071322;28;20429;-84
2021/11/05 03:01:36;;;;;;;0.40;0.30;;;;;;;24.13;19.63;97925.94;5076383;28;20029;-84
2021/11/05 03:04:04;;;;;;;0.10;0.10;;;;;;;24.30;19.35;97919.06;5069078;28;20118;-84
2021/11/05 03:06:35;;;;;;;0.20;0.20;;;;;;;24.50;19.11;97919.75;5050562;28;20036;-84
2021/11/05 03:09:11;;;;;;;;;;;;;;;24.49;18.95;97918.19;5075697;28;20477;-83
2021/11/05 03:11:38;;;;;;;0.45;0.30;;;;;;;24.23;19.29;97948.09;5074497;28;19962;-84
2021/11/05 03:14:05;;;;;;;0.28;0.28;;;;;;;24.23;19.28;97947.31;5064291;28;20036;-84
2021/11/05 03:16:31;;;;;;;0.20;0.20;;;;;;;24.43;19.06;97953.63;5057301;28;20037;-84
2021/11/05 03:18:57;;;;;;;0.10;0.10;;;;;;;24.50;18.94;97959.84;5072068;28;20512;-84
2021/11/05 03:21:23;;;;;;;0.20;0.20;;;;;;;24.53;18.86;97972.19;5064587;28;20077;-84
2021/11/05 03:23:49;;;;;;;0.20;0.10;;;;;;;24.20;19.11;97965.78;5055953;28;20033;-83
2021/11/05 03:26:16;;;;;;;0.20;0.20;;;;;;;24.34;19.18;97971.06;5059465;28;20032;-83
2021/11/05 03:28:42;;;;;;;0.20;0.20;;;;;;;23.91;19.41;97976.88;5075833;28;20086;-83
2021/11/05 03:31:09;;;;;;;0.20;0.20;;;;;;;24.13;19.33;97982.81;5075264;28;20045;-84
2021/11/05 03:33:35;;;;;;;0.20;0.20;;;;;;;24.50;18.78;97976.69;5061730;28;20112;-84
2021/11/05 03:36:01;;;;;;;0.93;0.20;;;;;;;24.19;19.03;97985.88;5067256;28;20036;-84
2021/11/05 03:38:27;;;;;;;0.35;0.30;;;;;;;24.27;19.20;97990.09;5054636;28;20029;-85
2021/11/05 03:40:53;;;;;;;0.10;0.10;;;;;;;24.14;19.26;97989.19;5073829;28;20035;-84
2021/11/05 03:43:20;;;;;;;0.52;0.32;;;;;;;24.18;19.11;97992.75;5069713;28;20025;-84
2021/11/05 03:45:46;;;;;;;0.20;0.20;;;;;;;24.50;18.69;97998.34;5074225;28;20036;-84
2021/11/05 03:48:12;;;;;;;0.30;0.30;;;;;;;24.37;18.88;98001.06;5076141;28;20097;-84
2021/11/05 03:50:38;;;;;;;0.20;0.20;;;;;;;23.89;19.45;98015.00;5078228;28;20487;-84
2021/11/05 03:53:04;;;;;;;0.30;0.30;;;;;;;23.81;19.57;98016.38;5070672;28;20047;-84
2021/11/05 03:55:30;;;;;;;0.30;0.20;;;;;;;24.22;18.86;98022.28;5072463;28;20049;-83
2021/11/05 03:57:56;;;;;;;0.17;0.17;;;;;;;24.13;19.27;98024.09;5054995;28;20071;-83
2021/11/05 04:00:23;;;;;;;0.30;0.30;;;;;;;23.79;19.41;98028.03;5060299;28;20036;-83
2021/11/05 04:02:49;;;;;;;0.40;0.30;;;;;;;24.01;19.38;98031.16;5067699;28;20493;-84
2021/11/05 04:05:15;;;;;;;0.20;0.20;;;;;;;23.84;19.55;98032.31;5064850;28;20033;-84
2021/11/05 04:07:41;;;;;;;0.30;0.30;;;;;;;23.81;19.43;98036.00;5066357;28;20044;-83
2021/11/05 04:10:08;;;;;;;0.20;0.20;;;;;;;23.81;19.40;98031.19;5079513;28;20028;-84
2021/11/05 04:12:34;;;;;;;0.63;0.30;;;;;;;23.90;19.46;98036.19;5071879;28;20098;-84
2021/11/05 04:15:00;;;;;;;0.38;0.28;;;;;;;23.67;19.55;98034.28;5075120;28;20120;-84
2021/11/05 04:17:26;;;;;;;0.30;0.22;;;;;;;23.71;19.52;98037.78;5074258;28;20509;-84
2021/11/05 04:19:52;;;;;;;1.45;0.20;;;;;;;23.97;19.15;98036.81;5071381;28;20123;-85
2021/11/05 04:22:18;;;;;;;0.20;0.20;;;;;;;23.88;19.39;98038.63;5062751;28;20044;-85
2021/11/05 04:24:44;;;;;;;0.20;0.20;;;;;;;23.55;19.74;98046.13;5055505;28;20041;-84
2021/11/05 04:27:10;;;;;;;0.38;0.32;;;;;;;23.70;19.44;98038.25;5072506;28;20490;-85
2021/11/05 04:29:37;;;;;;;4.13;0.30;;;;;;;22.94;20.46;98039.31;5066618;28;20021;-84
2021/11/05 04:32:04;;;;;;;0.50;0.43;;;;;;;23.60;19.76;98033.63;5064447;28;20055;-85
2021/11/05 04:34:30;;;;;;;0.25;0.25;;;;;;;23.86;19.22;98032.69;5069881;28;20040;-85
2021/11/05 04:36:56;;;;;;;0.30;0.20;;;;;;;23.56;19.64;98036.53;5063160;28;20100;-85
2021/11/05 04:39:24;;;;;;;0.30;0.20;;;;;;;24.02;19.14;98035.53;5058995;28;20490;-85
2021/11/05 04:41:51;;;;;;;0.30;0.30;;;;;;;24.40;18.72;98035.88;5075275;28;20020;-85
2021/11/05 04:44:17;;;;;;;0.10;0.10;;;;;;;23.99;18.96;98042.03;5070371;28;20032;-84
2021/11/05 04:46:43;;;;;;;0.20;0.20;;;;;;;24.32;18.85;98045.72;5067282;28;20029;-85
2021/11/05 04:49:09;;;;;;;0.22;0.22;;;;;;;24.56;18.68;98050.72;5053456;28;20390;-82
2021/11/05 04:51:35;;;;;;;0.40;0.20;;;;;;;24.41;18.61;98043.09;5064153;28;20037;-83
2021/11/05 04:54:02;;;;;;;0.85;0.40;;;;;;;23.93;19.14;98041.72;5051276;28;20036;-83
2021/11/05 04:56:28;;;;;;;1.67;0.60;;;;;;;23.72;19.36;98027.38;5066640;28;20029;-83
2021/11/05 04:58:54;;;;;;;1.13;0.60;;;;;;;23.13;20.09;98032.94;5073848;28;20078;-82
2021/11/05 05:01:20;;;;;;;0.55;0.50;;;;;;;23.29;19.90;98024.66;5071078;28;20079;-82
2021/11/05 05:03:46;;;;;;;0.50;0.50;;;;;;;23.29;19.90;98024.66;5067590;28;20044;-84
2021/11/05 05:06:12;;;;;;;0.57;0.40;;;;;;;23.52;19.46;98023.81;5065447;28;20580;-83
2021/11/05 05:08:39;;;;;;;0.35;0.30;;;;;;;24.02;19.00;98030.72;5062635;28;20491;-83
2021/11/05 05:11:05;;;;;;;1.65;0.32;;;;;;;24.20;18.85;98035.94;5054689;28;20021;-81
2021/11/05 05:13:31;;;;;;;0.35;0.35;;;;;;;23.96;18.95;98040.06;5064306;28;20060;-81
2021/11/05 05:15:58;;;;;;;0.40;0.35;;;;;;;23.94;18.97;98042.53;5067300;28;20040;-81
2021/11/05 05:18:24;;;;;;;0.40;0.40;;;;;;;23.79;19.26;98046.84;5068084;28;20115;-81
2021/11/05 05:20:50;;;;;;;0.20;0.20;;;;;;;24.13;18.84;98054.97;5059395;28;20128;-82
2021/11/05 05:23:16;;;;;;;0.30;0.30;;;;;;;24.33;18.70;98058.50;5079713;28;20071;-81
2021/11/05 05:25:42;;;;;;;0.60;0.43;;;;;;;24.11;18.73;98063.03;5067180;28;20024;-81
2021/11/05 05:28:08;;;;;;;0.40;0.40;;;;;;;24.29;18.53;98061.41;5070381;28;20056;-80
2021/11/05 05:30:35;;;;;;;0.28;0.20;;;;;;;24.41;18.60;98066.31;5072417;28;20540;-81
2021/11/05 05:33:01;;;;;;;0.32;0.32;;;;;;;24.49;18.37;98067.72;5072001;28;20024;-81
2021/11/05 05:35:27;;;;;;;0.52;0.40;;;;;;;24.54;18.13;98069.22;5068142;28;20106;-80
2021/11/05 05:37:54;;;;;;;0.30;0.30;;;;;;;24.56;18.31;98075.97;5058635;28;20547;-81
2021/11/05 05:40:21;;;;;;;0.30;0.30;;;;;;;24.59;18.11;98074.31;5064260;28;20465;-81
2021/11/05 05:42:48;;;;;;;1.48;0.88;;;;;;;24.41;18.44;98066.31;5067674;28;20371;-80
2021/11/05 05:45:14;;;;;;;3.42;1.48;;;;;;;24.48;18.31;98062.56;5066994;28;20509;-80
2021/11/05 05:47:44;;;;;;;7.28;3.67;;;;;;;24.63;17.95;98060.97;5066384;28;20036;-80
2021/11/05 05:50:16;;;;;;;1.70;1.35;;;;;;;24.48;18.19;98077.38;5057433;28;20502;-81
2021/11/05 05:52:43;;;;;;;1.30;0.80;;;;;;;23.99;18.90;98072.88;5069960;28;20029;-80
2021/11/05 05:55:12;;;;;;;0.73;0.68;;;;;;;23.64;19.26;98077.19;5064609;28;20475;-81
2021/11/05 05:57:39;;;;;;;1.38;0.70;;;;;;;23.38;19.64;98084.50;5064962;28;20043;-81
2021/11/05 06:00:11;;;;;;;1.27;0.90;;;;;;;23.26;19.61;98089.94;5066159;28;20032;-82
2021/11/05 06:02:38;;;;;;;1.50;0.80;;;;;;;22.57;20.61;98091.47;5064914;28;20115;-84
2021/11/05 06:05:04;;;;;;;0.70;0.60;;;;;;;22.49;20.74;98087.22;5063433;28;20094;-83
2021/11/05 06:07:30;;;;;;;0.60;0.60;;;;;;;22.83;20.30;98095.47;5062547;28;20096;-82
2021/11/05 06:09:56;;;;;;;2.05;1.00;;;;;;;23.40;19.84;98114.91;5051228;28;20460;-81
2021/11/05 06:12:23;;;;;;;1.75;0.90;;;;;;;23.78;19.48;98106.97;5054849;28;20029;-82
2021/11/05 06:14:49;;;;;;;1.55;0.90;;;;;;;24.06;19.00;98114.81;5057848;28;20032;-83
2021/11/05 06:17:15;;;;;;;3.55;1.80;;;;;;;24.17;19.04;98115.38;5061732;28;20025;-84
2021/11/05 06:19:42;;;;;;;2.90;1.25;;;;;;;24.39;18.71;98115.69;5067416;28;20037;-82
2021/11/05 06:22:08;;;;;;;2.05;1.17;;;;;;;24.29;18.78;98125.16;5048272;28;20032;-85
2021/11/05 06:24:37;;;;;;;2.03;0.85;;;;;;;23.72;19.17;98117.09;5062582;28;20046;-85
2021/11/05 06:27:03;;;;;;;2.53;1.08;;;;;;;23.92;19.03;98112.28;5057910;28;20029;-85
2021/11/05 06:29:30;;;;;;;1.33;1.23;;;;;;;23.75;19.30;98113.44;5056954;28;20032;-85
2021/11/05 06:31:56;;;;;;;1.50;1.20;;;;;;;23.77;19.33;98119.38;5072533;28;20066;-85
2021/11/05 06:34:22;;;;;;;1.35;0.80;;;;;;;24.14;18.97;98130.25;5065241;28;20025;-85
2021/11/05 06:36:48;;;;;;;2.22;1.00;;;;;;;24.39;18.72;98140.94;5059817;28;20040;-85
2021/11/05 06:39:14;;;;;;;1.90;0.77;;;;;;;24.53;18.69;98151.84;5060939;28;20037;-84
2021/11/05 06:41:40;;;;;;;1.80;0.90;;;;;;;24.99;18.45;98160.03;5085192;28;20081;-84
2021/11/05 06:44:06;;;;;;;3.28;1.15;;;;;;;25.23;18.09;98167.03;5081335;28;20074;-85
2021/11/05 06:46:33;;;;;;;2.25;0.95;;;;;;;25.50;17.96;98171.63;5073981;28;20111;-84
2021/11/05 06:48:59;;;;;;;1.40;0.80;;;;;;;25.63;17.49;98173.25;5077156;28;20040;-84
2021/11/05 06:51:25;;;;;;;2.28;0.90;;;;;;;25.35;18.07;98179.59;5070029;28;20033;-85
2021/11/05 06:53:51;;;;;;;3.47;0.93;;;;;;;25.61;17.91;98184.16;5082666;28;20032;-85
2021/11/05 06:56:18;;;;;;;0.98;0.60;;;;;;;25.69;17.82;98184.78;5070391;28;20028;-84
2021/11/05 06:58:45;;;;;;;0.80;0.50;;;;;;;25.73;17.69;98179.84;5062524;28;20032;-85
2021/11/05 07:01:12;;;;;;;1.55;0.60;;;;;;;26.03;17.62;98179.38;5084485;28;20028;-85
2021/11/05 07:03:38;;;;;;;1.40;0.73;;;;;;;25.82;17.69;98179.97;5075305;28;20037;-85
2021/11/05 07:06:04;;;;;;;1.65;0.73;;;;;;;25.59;17.92;98177.41;5073242;28;20028;-85
2021/11/05 07:08:31;;;;;;;3.17;0.50;;;;;;;25.82;17.69;98177.97;5057510;28;20033;-86
2021/11/05 07:10:58;;;;;;;2.83;0.52;;;;;;;25.24;18.45;98173.44;5075540;28;20082;-84
2021/11/05 07:13:25;;;;;;;0.88;0.70;;;;;;;25.60;18.35;98181.81;5076562;28;20032;-86
2021/11/05 07:15:52;;;;;;;1.65;0.82;;;;;;;25.01;18.68;98196.91;5092428;28;20402;-85
2021/11/05 07:18:18;;;;;;;1.30;0.50;;;;;;;25.31;18.63;98201.38;5056646;28;20127;-84
2021/11/05 07:20:45;;;;;;;1.38;0.85;;;;;;;25.26;18.75;98199.09;5071529;28;20071;-84
2021/11/05 07:23:12;;;;;;;1.00;0.63;;;;;;;25.52;18.51;98200.06;5064828;28;20389;-84
2021/11/05 07:25:39;;;;;;;3.58;0.82;;;;;;;25.12;18.52;98194.63;5076759;28;20044;-84
2021/11/05 07:28:06;;;;;;;0.50;0.40;;;;;;;25.74;18.48;98193.44;5064080;28;20044;-84
2021/11/05 07:30:32;;;;;;;3.05;0.80;;;;;;;25.60;18.41;98195.88;5074779;28;21864;-84
2021/11/05 07:32:58;;;;;;;0.90;0.52;;;;;;;25.34;18.71;98198.47;5076318;28;20551;-84
2021/11/05 07:35:25;;;;;;;0.88;0.40;;;;;;;25.39;18.79;98194.38;5075458;28;20024;-84
2021/11/05 07:37:52;;;;;;;0.90;0.57;;;;;;;24.85;18.68;98196.88;5078702;28;20060;-84
2021/11/05 07:40:20;;;;;;;1.20;0.50;;;;;;;25.60;18.50;98221.94;5066710;28;20111;-84
2021/11/05 07:42:47;;;;;;;0.43;0.40;;;;;;;25.40;18.38;98221.22;5069517;28;21160;-84
2021/11/05 07:45:15;;;;;;;0.50;0.45;;;;;;;25.45;18.73;98215.09;5075571;28;20040;-84
2021/11/05 07:47:42;;;;;;;0.75;0.40;;;;;;;25.73;18.06;98203.13;5071451;28;20391;-84
2021/11/05 07:50:10;;;;;;;0.98;0.63;;;;;;;25.15;18.86;98207.81;5065983;28;20099;-84
2021/11/05 07:52:37;;;;;;;0.50;0.50;;;;;;;25.32;18.79;98214.97;5068575;28;20056;-84
2021/11/05 07:55:06;;;;;;;0.65;0.47;;;;;;;25.09;18.93;98219.97;5076609;28;20112;-84
2021/11/05 07:57:33;;;;;;;1.95;0.68;;;;;;;25.71;18.46;98230.09;5077593;28;20505;-84
2021/11/05 07:59:59;;;;;;;0.57;0.50;;;;;;;25.63;18.38;98231.50;5068424;28;20053;-83
2021/11/05 08:02:25;;;;;;;0.50;0.38;;;;;;;25.77;17.86;98236.78;5066268;28;20033;-83
2021/11/05 08:04:51;;;;;;;0.43;0.30;;;;;;;25.87;18.19;98233.69;5020895;28;20124;-83
2021/11/05 08:07:21;;;;;;;4.68;0.40;;;;;;;25.60;18.43;98240.84;5062528;28;20486;-83
2021/11/05 08:09:48;;;;;;;0.88;0.50;;;;;;;25.75;18.52;98242.06;5096625;28;20072;-83
2021/11/05 08:12:14;;;;;;;2.50;0.50;;;;;;;25.87;18.37;98242.13;5074899;28;20103;-83
2021/11/05 08:14:40;;;;;;;0.52;0.30;;;;;;;26.25;18.27;98253.59;5073011;28;20059;-82
2021/11/05 08:17:07;;;;;;;0.77;0.50;;;;;;;26.62;17.81;98250.09;5063012;28;20033;-84
2021/11/05 08:19:33;;;;;;;0.85;0.47;;;;;;;26.41;17.59;98249.91;5059833;28;20101;-83
2021/11/05 08:21:59;;;;;;;0.82;0.60;;;;;;;24.89;18.50;98250.16;5055047;28;20102;-83
2021/11/05 08:24:27;;;;;;;1.17;0.60;;;;;;;24.66;19.20;98253.84;5072594;28;20043;-83
2021/11/05 08:26:54;;;;;;;0.73;0.52;;;;;;;25.55;18.52;98256.22;5066139;28;20025;-83
2021/11/05 08:29:20;;;;;;;3.80;1.23;;;;;;;26.10;18.20;98269.28;5054891;28;20494;-83
2021/11/05 08:31:46;;;;;;;2.40;0.60;;;;;;;26.60;18.08;98269.47;5069381;28;20154;-83
2021/11/05 08:34:13;;;;;;;2.10;0.70;;;;;;;26.03;17.44;98273.03;5073882;28;20044;-83
2021/11/05 08:36:39;;;;;;;1.05;0.77;;;;;;;26.58;18.15;98266.28;5071292;28;20032;-83
2021/11/05 08:39:06;;;;;;;0.55;0.50;;;;;;;26.48;18.00;98270.22;5071041;28;20029;-83
2021/11/05 08:41:33;;;;;;;0.55;0.50;;;;;;;26.08;17.49;98258.44;5059278;28;20055;-83
2021/11/05 08:43:59;;;;;;;1.05;0.50;;;;;;;26.26;17.75;98263.59;5074356;28;20016;-83
2021/11/05 08:46:28;;;;;;;0.52;0.50;;;;;;;25.15;18.38;98266.81;5072847;28;20033;-83
2021/11/05 08:49:01;;;;;;;0.60;0.50;;;;;;;24.78;19.13;98256.03;5064687;28;20029;-83
2021/11/05 08:51:29;;;;;;;1.17;0.68;;;;;;;25.21;18.57;98273.47;5064955;28;20123;-83
2021/11/05 08:53:55;;;;;;;1.80;0.40;;;;;;;24.46;19.69;98265.06;5055620;28;20079;-83
2021/11/05 08:56:21;;;;;;;0.60;0.40;;;;;;;23.47;20.19;98274.50;5075931;28;20035;-83
2021/11/05 08:58:47;;;;;;;1.52;0.50;;;;;;;24.33;19.74;98277.38;5072797;28;20036;-83
2021/11/05 09:01:15;;;;;;;0.60;0.55;;;;;;;25.21;19.46;98259.44;5074650;28;20111;-83
2021/11/05 09:03:41;;;;;;;0.50;0.50;;;;;;;24.07;19.81;98293.09;5055252;28;20032;-83
2021/11/05 09:06:09;;;;;;;0.70;0.50;;;;;;;24.13;19.80;98290.63;5058672;28;20037;-83
2021/11/05 09:08:38;;;;;;;0.32;0.32;;;;;;;23.98;19.97;98306.88;5085837;28;20032;-84
2021/11/05 09:11:07;;;;;;;0.63;0.45;;;;;;;25.22;18.94;98303.19;5094260;28;20485;-83
2021/11/05 09:13:35;;;;;;;0.70;0.52;;;;;;;24.31;19.64;98308.69;5064482;28;20028;-83
2021/11/05 09:16:02;;;;;;;2.17;1.65;;;;;;;24.67;19.42;98298.31;5073479;28;20036;-83
2021/11/05 09:18:29;;;;;;;1.10;0.77;;;;;;;25.67;18.20;98314.56;5070914;28;20086;-83
2021/11/05 09:20:55;;;;;;;0.95;0.77;;;;;;;26.18;18.22;98318.53;5046055;28;20530;-83
2021/11/05 09:23:24;;;;;;;1.33;0.75;;;;;;;25.78;17.83;98319.94;5073044;28;20082;-83
2021/11/05 09:25:51;;;;;;;0.38;0.38;;;;;;;25.59;18.35;98320.81;5069588;28;20475;-83
2021/11/05 09:28:17;;;;;;;0.52;0.40;;;;;;;25.12;19.11;98323.06;5055867;28;20438;-83
2021/11/05 09:30:43;;;;;;;1.25;0.50;;;;;;;25.29;18.65;98321.88;5070455;28;20034;-83
2021/11/05 09:33:10;;;;;;;6.65;0.55;;;;;;;26.21;17.78;98333.75;5072697;28;20028;-84
2021/11/05 09:35:36;;;;;;;0.60;0.60;;;;;;;25.16;19.14;98326.59;5066210;28;20037;-83
2021/11/05 09:38:03;;;;;;;0.55;0.50;;;;;;;25.99;18.89;98325.81;5066731;28;20051;-83
2021/11/05 09:40:29;;;;;;;1.10;0.50;;;;;;;26.68;18.01;98317.91;5072340;28;20540;-83
2021/11/05 09:42:57;;;;;;;1.15;0.70;;;;;;;25.84;18.21;98318.97;5067725;28;20028;-83
2021/11/05 09:45:30;;;;;;;1.40;1.05;;;;;;;25.07;18.83;98323.56;5066544;28;20463;-83
2021/11/05 09:47:58;;;;;;;0.40;0.40;;;;;;;25.48;18.25;98318.25;5067247;28;20040;-85
2021/11/05 09:50:24;;;;;;;0.55;0.40;;;;;;;25.50;18.45;98327.03;5066778;28;20066;-84
2021/11/05 09:52:51;;;;;;;0.75;0.40;;;;;;;25.36;18.91;98332.97;5070465;28;20099;-83
2021/11/05 09:55:18;;;;;;;0.50;0.50;;;;;;;25.96;18.03;98321.06;5068288;28;20033;-83
2021/11/05 09:57:44;;;;;;;0.45;0.40;;;;;;;26.27;18.53;98321.50;5056920;28;20028;-83
2021/11/05 10:00:14;;;;;;;2.25;0.50;;;;;;;25.22;19.31;98328.47;5070057;28;20037;-83
2021/11/05 10:02:43;;;;;;;0.38;0.38;;;;;;;26.55;17.95;98334.78;5070635;28;20024;-84
2021/11/05 10:05:11;;;;;;;0.50;0.45;;;;;;;27.13;17.62;98337.56;5065658;28;20099;-82
2021/11/05 10:07:46;;;;;;;1.15;0.50;;;;;;;27.22;17.47;98348.97;5068088;28;20029;-84
2021/11/05 10:10:13;;;;;;;0.82;0.40;;;;;;;27.89;16.66;98349.69;5061478;28;20025;-84
2021/11/05 10:13:10;;;;;;;0.55;0.55;;;;;;;27.76;16.15;98358.16;5058492;28;20029;-85
2021/11/05 10:15:46;;;;;;;2.83;0.50;;;;;;;26.41;18.14;98349.25;5069122;28;20494;-85
2021/11/05 10:18:21;;;;;;;0.80;0.40;;;;;;;25.76;18.21;98353.34;5060736;28;20090;-84
2021/11/05 10:20:49;;;;;;;0.75;0.45;;;;;;;24.10;19.87;98344.75;5060587;28;20045;-83
2021/11/05 10:23:17;;;;;;;0.85;0.60;;;;;;;23.64;19.90;98349.09;5064125;28;20086;-83
2021/11/05 10:25:49;;;;;;;0.40;0.40;;;;;;;24.55;19.44;98345.94;5041979;28;20087;-83
2021/11/05 10:28:25;;;;;;;0.63;0.60;;;;;;;24.65;19.27;98350.53;5061824;28;20025;-85
2021/11/05 10:31:10;;;;;;;1.25;0.50;;;;;;;24.35;19.36;98356.31;5066305;28;20104;-86
2021/11/05 10:33:41;;;;;;;1.27;0.50;;;;;;;23.86;20.55;98353.16;5065165;28;20044;-83
2021/11/05 10:36:10;;;;;;;1.83;0.70;;;;;;;24.71;19.40;98355.19;5065791;28;20032;-83
2021/11/05 10:38:51;;;;;;;0.50;0.45;;;;;;;25.08;19.21;98367.31;5047265;28;20159;-84
2021/11/05 10:41:20;;;;;;;0.55;0.50;;;;;;;25.06;18.92;98370.56;5063640;28;20044;-85
2021/11/05 10:43:55;;;;;;;1.08;0.60;;;;;;;23.85;20.21;98368.38;5062769;28;20035;-85
2021/11/05 10:46:23;;;;;;;0.85;0.60;;;;;;;23.80;20.35;98359.69;5063494;28;20119;-82
2021/11/05 10:48:51;;;;;;;0.70;0.70;;;;;;;24.23;19.75;98357.72;5058944;28;20033;-82
2021/11/05 10:51:22;;;;;;;1.15;0.50;;;;;;;24.35;20.31;98364.75;5060645;28;20032;-82
2021/11/05 10:53:48;;;;;;;0.80;0.80;;;;;;;23.05;20.87;98382.38;5061501;28;20033;-82
2021/11/05 10:56:24;;;;;;;1.25;0.95;;;;;;;23.01;21.36;98372.41;5064705;28;20067;-82
2021/11/05 10:58:50;;;;;;;0.70;0.70;;;;;;;22.95;21.14;98374.09;5063331;28;20666;-82
2021/11/05 11:01:20;;;;;;;0.93;0.77;;;;;;;22.83;21.40;98374.63;5062596;28;20047;-82
2021/11/05 11:03:49;;;;;;;0.95;0.75;;;;;;;23.17;21.29;98378.22;5063197;28;20594;-82
2021/11/05 11:06:18;;;;;;;1.25;0.73;;;;;;;23.57;21.25;98354.81;5062979;28;20397;-83
2021/11/05 11:08:55;;;;;;;1.35;0.70;;;;;;;24.66;19.95;98369.75;5069932;28;20029;-82
2021/11/05 11:11:35;;;;;;;0.95;0.68;;;;;;;24.81;19.97;98377.94;5058274;28;20052;-82
2021/11/05 11:14:07;;;;;;;0.90;0.70;;;;;;;25.04;19.24;98366.63;5067244;28;20029;-82
2021/11/05 11:16:36;;;;;;;0.80;0.63;;;;;;;25.60;19.17;98382.22;5062581;28;20651;-82
2021/11/05 11:19:11;;;;;;;1.50;0.70;;;;;;;25.29;18.77;98384.53;5060988;28;20076;-82
2021/11/05 11:21:51;;;;;;;2.25;0.73;;;;;;;25.09;19.43;98386.53;5047441;28;20044;-82
2021/11/05 11:24:21;;;;;;;1.30;0.75;;;;;;;25.07;19.35;98376.97;5064455;28;20395;-82
2021/11/05 11:26:49;;;;;;;0.93;0.65;;;;;;;25.99;18.50;98376.47;5047424;28;20083;-82
2021/11/05 11:29:16;;;;;;;0.93;0.70;;;;;;;26.20;18.04;98363.09;5065443;28;20485;-82
2021/11/05 11:31:44;;;;;;;1.13;1.02;;;;;;;25.27;18.96;98370.13;5067610;28;20067;-82
2021/11/05 11:34:12;;;;;;;1.10;1.00;;;;;;;24.68;19.75;98386.16;5067486;28;20082;-82